Time;durP1;ratioP1;P1;durP2;ratioP2;P2;SDS_P1;SDS_P2;PMS_P1;PMS_P2;Temp;Humidity;BMP_temperature;BMP_pressure;BME280_temperature;BME280_humidity;BME280_pressure;Samples;Min_cycle;Max_cycle;Signal;HPM_P1;HPM_P2
2023/07/13 00:00:27;;;;;;;12.55;3.63;;;;;;;;;;5109178;28;20050;-66
2023/07/13 00:02:53;;;;;;;12.13;2.67;;;;;;;;;;5142241;27;20111;-67
2023/07/13 00:05:20;;;;;;;12.57;3.10;;;;;;;;;;5108750;27;20439;-66
2023/07/13 00:07:46;;;;;;;17.25;3.92;;;;;;;;;;5111346;28;20122;-67
2023/07/13 00:10:13;;;;;;;14.82;3.30;;;;;;;;;;5102843;28;20080;-67
2023/07/13 00:12:39;;;;;;;11.45;2.53;;;;;;;;;;5105870;28;20096;-67
2023/07/13 00:15:08;;;;;;;15.50;3.13;;;;;;;;;;5112673;27;20047;-67
2023/07/13 00:17:34;;;;;;;9.93;2.25;;;;;;;;;;5109268;27;20517;-66
2023/07/13 00:20:00;;;;;;;10.02;2.72;;;;;;;;;;5110409;28;20517;-66
2023/07/13 00:22:27;;;;;;;11.80;2.40;;;;;;;;;;5102175;27;20040;-67
2023/07/13 00:24:56;;;;;;;10.55;2.00;;;;;;;;;;5110992;28;20067;-66
2023/07/13 00:27:22;;;;;;;9.77;2.33;;;;;;;;;;5082586;28;20342;-67
2023/07/13 00:29:48;;;;;;;15.05;2.40;;;;;;;;;;5094979;28;20059;-67
2023/07/13 00:32:15;;;;;;;8.93;1.77;;;;;;;;;;5107106;28;20067;-67
2023/07/13 00:34:41;;;;;;;8.63;1.70;;;;;;;;;;5110666;27;20092;-67
2023/07/13 00:37:08;;;;;;;11.77;1.73;;;;;;;;;;5109630;27;20040;-66
2023/07/13 00:39:35;;;;;;;9.43;2.25;;;;;;;;;;5108004;27;20399;-67
2023/07/13 00:42:02;;;;;;;5.63;1.50;;;;;;;;;;5106834;27;20046;-67
2023/07/13 00:44:28;;;;;;;5.63;1.35;;;;;;;;;;5109821;27;20052;-66
2023/07/13 00:46:55;;;;;;;10.25;1.40;;;;;;;;;;5106622;27;20047;-67
2023/07/13 00:49:24;;;;;;;6.80;1.70;;;;;;;;;;5110528;28;20495;-67
2023/07/13 00:51:53;;;;;;;3.97;1.20;;;;;;;;;;5111419;28;20344;-67
2023/07/13 00:54:21;;;;;;;5.75;1.75;;;;;;;;;;5107719;27;20479;-66
2023/07/13 00:56:49;;;;;;;5.30;1.23;;;;;;;;;;5103028;27;20044;-67
2023/07/13 00:59:18;;;;;;;6.68;1.42;;;;;;;;;;5110983;28;20051;-66
2023/07/13 01:01:45;;;;;;;4.55;1.33;;;;;;;;;;5091214;28;20050;-67
2023/07/13 01:04:11;;;;;;;6.78;1.05;;;;;;;;;;5110262;28;20119;-67
2023/07/13 01:06:38;;;;;;;7.28;1.52;;;;;;;;;;5108724;27;20075;-66
2023/07/13 01:09:05;;;;;;;6.47;1.30;;;;;;;;;;5091440;28;20491;-67
2023/07/13 01:11:31;;;;;;;4.78;1.05;;;;;;;;;;5099051;28;20039;-67
2023/07/13 01:13:58;;;;;;;5.30;1.45;;;;;;;;;;5110218;27;20138;-66
2023/07/13 01:16:29;;;;;;;4.97;1.02;;;;;;;;;;5108392;27;20135;-67
2023/07/13 01:18:58;;;;;;;5.15;1.08;;;;;;;;;;5086952;28;20135;-67
2023/07/13 01:21:25;;;;;;;6.35;1.00;;;;;;;;;;5108979;27;20043;-67
2023/07/13 01:23:52;;;;;;;5.25;1.00;;;;;;;;;;5105585;27;20044;-66
2023/07/13 01:26:18;;;;;;;3.00;0.80;;;;;;;;;;5123073;27;20525;-67
2023/07/13 01:28:44;;;;;;;11.73;1.42;;;;;;;;;;5110864;28;20116;-67
2023/07/13 01:31:11;;;;;;;7.57;1.52;;;;;;;;;;5112543;27;20115;-66
2023/07/13 01:33:41;;;;;;;8.55;1.73;;;;;;;;;;5110565;27;20040;-67
2023/07/13 01:36:08;;;;;;;4.63;0.95;;;;;;;;;;5111070;28;20192;-67
2023/07/13 01:38:35;;;;;;;3.83;0.98;;;;;;;;;;5107989;27;20079;-67
2023/07/13 01:41:01;;;;;;;7.05;1.50;;;;;;;;;;5111220;28;20474;-67
2023/07/13 01:43:28;;;;;;;4.82;1.10;;;;;;;;;;5109410;27;20547;-67
2023/07/13 01:45:54;;;;;;;7.18;1.10;;;;;;;;;;5107791;27;20044;-67
2023/07/13 01:48:20;;;;;;;6.35;1.23;;;;;;;;;;5092200;28;20115;-67
2023/07/13 01:50:48;;;;;;;3.70;0.88;;;;;;;;;;5110217;27;22201;-67
2023/07/13 01:53:14;;;;;;;5.13;1.20;;;;;;;;;;5107441;28;20127;-67
2023/07/13 01:55:40;;;;;;;4.47;1.27;;;;;;;;;;5107196;28;20054;-67
2023/07/13 01:58:07;;;;;;;4.57;1.00;;;;;;;;;;5108587;28;20047;-67
2023/07/13 02:00:33;;;;;;;4.13;1.27;;;;;;;;;;5106723;28;20048;-67
2023/07/13 02:02:59;;;;;;;4.75;1.52;;;;;;;;;;5134908;27;20047;-67
2023/07/13 02:05:26;;;;;;;7.18;1.55;;;;;;;;;;5110488;28;20134;-67
2023/07/13 02:07:52;;;;;;;7.05;2.10;;;;;;;;;;5110755;28;20071;-67
2023/07/13 02:10:19;;;;;;;5.50;1.20;;;;;;;;;;5106785;28;20049;-67
2023/07/13 02:12:45;;;;;;;7.47;1.70;;;;;;;;;;5109820;28;20047;-67
2023/07/13 02:15:11;;;;;;;8.68;1.75;;;;;;;;;;5088348;28;20043;-67
2023/07/13 02:17:38;;;;;;;8.73;2.20;;;;;;;;;;5110836;28;20086;-66
2023/07/13 02:20:04;;;;;;;6.03;1.73;;;;;;;;;;5108912;28;20043;-66
2023/07/13 02:22:30;;;;;;;6.70;1.38;;;;;;;;;;5108624;28;20114;-66
2023/07/13 02:24:57;;;;;;;7.00;2.22;;;;;;;;;;5108912;28;20421;-67
2023/07/13 02:27:23;;;;;;;6.30;1.63;;;;;;;;;;5108232;28;20040;-67
2023/07/13 02:29:51;;;;;;;8.02;1.92;;;;;;;;;;5109607;28;20050;-67
2023/07/13 02:32:17;;;;;;;5.78;1.55;;;;;;;;;;5103989;28;20056;-67
2023/07/13 02:34:44;;;;;;;5.97;1.27;;;;;;;;;;5108282;28;20055;-66
2023/07/13 02:37:10;;;;;;;6.53;1.70;;;;;;;;;;5108767;28;20460;-67
2023/07/13 02:39:36;;;;;;;7.65;1.65;;;;;;;;;;5109488;28;20040;-67
2023/07/13 02:42:03;;;;;;;7.35;1.88;;;;;;;;;;5107775;28;20048;-67
2023/07/13 02:44:29;;;;;;;10.13;1.58;;;;;;;;;;5107636;28;20051;-66
2023/07/13 02:46:55;;;;;;;6.50;1.95;;;;;;;;;;5105147;28;20084;-67
2023/07/13 02:49:22;;;;;;;6.88;1.60;;;;;;;;;;5111971;27;20492;-66
2023/07/13 02:51:48;;;;;;;9.93;2.80;;;;;;;;;;5093571;28;20424;-66
2023/07/13 02:54:14;;;;;;;10.23;2.15;;;;;;;;;;5108016;27;20051;-66
2023/07/13 02:56:41;;;;;;;6.70;1.85;;;;;;;;;;5107203;28;20348;-66
2023/07/13 02:59:07;;;;;;;8.82;2.70;;;;;;;;;;5111660;28;21633;-66
2023/07/13 03:01:35;;;;;;;8.77;1.90;;;;;;;;;;5094801;28;20084;-66
2023/07/13 03:04:01;;;;;;;12.43;3.03;;;;;;;;;;5112856;28;20046;-67
2023/07/13 03:06:30;;;;;;;12.90;2.90;;;;;;;;;;5113003;28;20048;-66
2023/07/13 03:08:56;;;;;;;11.27;2.60;;;;;;;;;;5099853;28;20059;-66
2023/07/13 03:11:23;;;;;;;9.73;2.63;;;;;;;;;;5112085;27;20127;-66
2023/07/13 03:13:49;;;;;;;12.85;3.22;;;;;;;;;;5111203;28;20058;-66
2023/07/13 03:16:15;;;;;;;9.25;2.22;;;;;;;;;;5112009;27;20051;-66
2023/07/13 03:18:42;;;;;;;7.13;2.05;;;;;;;;;;5109331;27;20043;-67
2023/07/13 03:21:08;;;;;;;9.02;2.47;;;;;;;;;;5112948;28;20131;-66
2023/07/13 03:23:34;;;;;;;10.18;2.28;;;;;;;;;;5113628;27;20092;-67
2023/07/13 03:26:03;;;;;;;9.10;2.22;;;;;;;;;;5105744;27;20175;-66
2023/07/13 03:28:29;;;;;;;11.85;3.17;;;;;;;;;;5111219;27;20571;-66
2023/07/13 03:31:03;;;;;;;11.63;2.53;;;;;;;;;;5110850;28;20293;-66
2023/07/13 03:33:29;;;;;;;13.18;3.05;;;;;;;;;;5111569;28;20048;-66
2023/07/13 03:35:56;;;;;;;14.32;3.47;;;;;;;;;;5111962;28;20096;-67
2023/07/13 03:38:22;;;;;;;11.07;2.80;;;;;;;;;;5100334;28;20070;-66
2023/07/13 03:40:49;;;;;;;8.90;3.50;;;;;;;;;;5100998;28;20070;-66
2023/07/13 03:43:15;;;;;;;15.45;3.63;;;;;;;;;;5108139;28;20039;-66
2023/07/13 03:45:41;;;;;;;14.98;3.10;;;;;;;;;;5106259;27;20080;-67
2023/07/13 03:48:08;;;;;;;11.38;3.00;;;;;;;;;;5110949;28;20896;-67
2023/07/13 03:50:34;;;;;;;13.95;3.22;;;;;;;;;;5107737;27;20051;-67
2023/07/13 03:53:00;;;;;;;13.63;3.63;;;;;;;;;;5112313;28;20058;-67
2023/07/13 03:55:27;;;;;;;15.43;3.08;;;;;;;;;;5101623;28;20379;-66
2023/07/13 03:58:12;;;;;;;11.88;4.00;;;;;;;;;;5110366;27;20491;-67
2023/07/13 04:00:38;;;;;;;14.85;3.47;;;;;;;;;;5111897;28;20130;-67
2023/07/13 04:03:04;;;;;;;12.93;3.15;;;;;;;;;;5107509;28;20036;-66
2023/07/13 04:05:30;;;;;;;12.48;3.35;;;;;;;;;;5107965;28;20131;-66
2023/07/13 04:07:57;;;;;;;13.05;3.78;;;;;;;;;;5110837;28;20144;-66
2023/07/13 04:10:23;;;;;;;10.02;3.22;;;;;;;;;;5110695;28;20444;-66
2023/07/13 04:12:49;;;;;;;11.85;3.40;;;;;;;;;;5110011;28;20927;-65
2023/07/13 04:15:15;;;;;;;12.85;3.60;;;;;;;;;;5111746;27;20504;-65
2023/07/13 04:17:42;;;;;;;15.32;3.33;;;;;;;;;;5104643;27;20048;-65
2023/07/13 04:20:08;;;;;;;11.20;3.22;;;;;;;;;;5105613;27;20050;-65
2023/07/13 04:22:34;;;;;;;13.45;3.33;;;;;;;;;;5112407;27;20059;-65
2023/07/13 04:25:00;;;;;;;9.30;3.80;;;;;;;;;;5111983;27;20471;-65
2023/07/13 04:27:28;;;;;;;10.23;3.45;;;;;;;;;;5113823;28;20055;-65
2023/07/13 04:29:54;;;;;;;13.15;3.80;;;;;;;;;;5112559;28;20043;-65
2023/07/13 04:32:21;;;;;;;13.18;3.80;;;;;;;;;;5111761;28;20043;-65
2023/07/13 04:34:47;;;;;;;11.57;3.30;;;;;;;;;;5110634;27;20568;-64
2023/07/13 04:37:13;;;;;;;15.80;4.22;;;;;;;;;;5108414;27;20067;-64
2023/07/13 04:39:39;;;;;;;11.88;3.53;;;;;;;;;;5111089;28;20048;-64
2023/07/13 04:42:06;;;;;;;12.05;3.83;;;;;;;;;;5109892;28;20047;-66
2023/07/13 04:44:32;;;;;;;13.30;3.80;;;;;;;;;;5104554;28;20078;-66
2023/07/13 04:46:58;;;;;;;11.20;3.55;;;;;;;;;;5105961;28;20047;-67
2023/07/13 04:49:24;;;;;;;11.70;4.03;;;;;;;;;;5108882;28;20104;-67
2023/07/13 04:51:51;;;;;;;17.15;3.55;;;;;;;;;;5107959;27;20043;-66
2023/07/13 04:54:17;;;;;;;13.55;4.03;;;;;;;;;;5105376;28;20337;-67
2023/07/13 04:56:43;;;;;;;14.95;3.65;;;;;;;;;;5131600;27;20058;-66
2023/07/13 04:59:09;;;;;;;14.32;3.42;;;;;;;;;;5104764;28;20083;-66
2023/07/13 05:01:36;;;;;;;12.60;3.53;;;;;;;;;;5088930;28;20052;-66
2023/07/13 05:04:02;;;;;;;10.10;3.60;;;;;;;;;;5107166;28;20036;-66
2023/07/13 05:06:30;;;;;;;13.02;3.40;;;;;;;;;;5104043;28;20047;-66
2023/07/13 05:08:56;;;;;;;10.15;3.72;;;;;;;;;;5103394;28;20499;-66
2023/07/13 05:11:26;;;;;;;12.05;3.35;;;;;;;;;;5102896;28;20139;-66
2023/07/13 05:13:52;;;;;;;18.40;4.10;;;;;;;;;;5103460;28;20047;-66
2023/07/13 05:16:18;;;;;;;15.32;3.90;;;;;;;;;;5104983;28;20054;-66
2023/07/13 05:18:47;;;;;;;14.40;3.60;;;;;;;;;;5105382;28;20040;-66
2023/07/13 05:21:15;;;;;;;13.73;3.78;;;;;;;;;;5102990;28;20055;-66
2023/07/13 05:23:44;;;;;;;12.25;3.55;;;;;;;;;;5105173;28;20055;-66
2023/07/13 05:26:11;;;;;;;16.30;4.60;;;;;;;;;;5105756;28;20059;-66
2023/07/13 05:28:37;;;;;;;12.70;4.13;;;;;;;;;;5103702;28;20051;-66
2023/07/13 05:31:04;;;;;;;12.77;3.50;;;;;;;;;;5103539;28;20062;-67
2023/07/13 05:33:30;;;;;;;9.65;2.90;;;;;;;;;;5104072;28;20093;-66
2023/07/13 05:35:57;;;;;;;10.35;3.22;;;;;;;;;;5104905;27;20043;-66
2023/07/13 05:38:23;;;;;;;8.48;3.30;;;;;;;;;;5105291;28;20058;-67
2023/07/13 05:40:50;;;;;;;11.40;3.13;;;;;;;;;;5106973;28;20047;-67
2023/07/13 05:43:20;;;;;;;13.40;3.70;;;;;;;;;;5106360;28;20111;-66
2023/07/13 05:45:46;;;;;;;8.85;3.05;;;;;;;;;;5103993;28;20825;-67
2023/07/13 05:48:12;;;;;;;16.20;5.13;;;;;;;;;;5102648;28;20040;-67
2023/07/13 05:50:38;;;;;;;11.95;2.58;;;;;;;;;;5103145;28;20054;-67
2023/07/13 05:53:06;;;;;;;10.82;3.42;;;;;;;;;;5104555;28;20040;-67
2023/07/13 05:55:32;;;;;;;13.38;3.05;;;;;;;;;;5103215;28;20063;-67
2023/07/13 05:57:59;;;;;;;7.57;2.20;;;;;;;;;;5103873;28;20047;-67
2023/07/13 06:00:26;;;;;;;15.23;2.88;;;;;;;;;;5104606;28;20112;-67
2023/07/13 06:02:52;;;;;;;7.55;2.10;;;;;;;;;;5103216;28;20600;-67
2023/07/13 06:05:19;;;;;;;11.38;2.30;;;;;;;;;;5104524;28;20069;-67
2023/07/13 06:07:45;;;;;;;8.55;1.98;;;;;;;;;;5104407;28;20134;-67
2023/07/13 06:10:11;;;;;;;7.45;1.70;;;;;;;;;;5106097;28;20119;-67
2023/07/13 06:12:37;;;;;;;6.30;1.77;;;;;;;;;;5101783;28;20126;-67
2023/07/13 06:15:04;;;;;;;7.22;1.98;;;;;;;;;;5106101;28;20135;-67
2023/07/13 06:17:30;;;;;;;9.75;1.95;;;;;;;;;;5102718;28;20522;-67
2023/07/13 06:19:56;;;;;;;10.88;3.28;;;;;;;;;;5100279;28;20055;-67
2023/07/13 06:22:22;;;;;;;6.18;1.80;;;;;;;;;;5103066;28;20050;-67
2023/07/13 06:24:49;;;;;;;10.45;1.92;;;;;;;;;;5087362;28;20468;-67
2023/07/13 06:27:15;;;;;;;7.13;2.38;;;;;;;;;;5109338;28;20478;-67
2023/07/13 06:29:44;;;;;;;7.03;1.70;;;;;;;;;;5107121;28;20055;-66
2023/07/13 06:32:11;;;;;;;11.13;2.28;;;;;;;;;;5098609;28;20036;-67
2023/07/13 06:34:37;;;;;;;6.57;1.58;;;;;;;;;;5107061;28;20082;-67
2023/07/13 06:37:03;;;;;;;7.82;1.60;;;;;;;;;;5139777;27;20055;-67
2023/07/13 06:39:30;;;;;;;6.30;1.50;;;;;;;;;;5108659;28;20054;-68
2023/07/13 06:41:56;;;;;;;7.07;1.65;;;;;;;;;;5110106;28;20055;-73
2023/07/13 06:44:22;;;;;;;5.72;1.50;;;;;;;;;;5099210;28;20561;-68
2023/07/13 06:46:48;;;;;;;5.63;1.58;;;;;;;;;;5105853;28;20491;-68
2023/07/13 06:49:15;;;;;;;7.97;1.92;;;;;;;;;;5104883;28;20056;-67
2023/07/13 06:51:41;;;;;;;8.40;1.65;;;;;;;;;;5105233;28;20052;-67
2023/07/13 06:54:07;;;;;;;5.63;1.70;;;;;;;;;;5100860;28;20057;-68
2023/07/13 06:56:34;;;;;;;5.38;1.20;;;;;;;;;;5111502;28;20504;-67
2023/07/13 06:59:00;;;;;;;4.55;1.63;;;;;;;;;;5110496;28;20364;-67
2023/07/13 07:01:26;;;;;;;6.88;1.60;;;;;;;;;;5110028;28;20059;-68
2023/07/13 07:03:52;;;;;;;5.07;1.30;;;;;;;;;;5111192;28;20075;-68
2023/07/13 07:06:20;;;;;;;3.47;1.20;;;;;;;;;;5111135;28;20040;-67
2023/07/13 07:08:46;;;;;;;5.32;1.67;;;;;;;;;;5110273;28;20046;-67
2023/07/13 07:11:14;;;;;;;6.22;1.77;;;;;;;;;;5111325;28;20096;-67
2023/07/13 07:13:40;;;;;;;3.72;1.00;;;;;;;;;;5111095;28;20118;-67
2023/07/13 07:16:07;;;;;;;5.38;1.63;;;;;;;;;;5110500;28;20115;-68
2023/07/13 07:18:33;;;;;;;6.20;1.50;;;;;;;;;;5110488;28;20043;-67
2023/07/13 07:20:59;;;;;;;4.55;1.40;;;;;;;;;;5110177;28;20142;-67
2023/07/13 07:23:26;;;;;;;5.65;1.20;;;;;;;;;;5109021;28;20690;-68
2023/07/13 07:25:52;;;;;;;5.57;1.42;;;;;;;;;;5098894;28;20113;-68
2023/07/13 07:28:19;;;;;;;6.55;1.65;;;;;;;;;;5104482;28;20044;-67
2023/07/13 07:30:46;;;;;;;5.80;1.30;;;;;;;;;;5114871;28;20085;-67
2023/07/13 07:33:12;;;;;;;4.82;1.20;;;;;;;;;;5106257;28;20166;-67
2023/07/13 07:35:39;;;;;;;5.68;1.50;;;;;;;;;;5112997;28;20450;-67
2023/07/13 07:38:05;;;;;;;8.77;1.40;;;;;;;;;;5115151;28;20043;-67
2023/07/13 07:40:32;;;;;;;6.07;1.30;;;;;;;;;;5115040;28;20046;-67
2023/07/13 07:42:59;;;;;;;9.60;2.17;;;;;;;;;;5114344;27;20176;-67
2023/07/13 07:45:27;;;;;;;6.28;1.40;;;;;;;;;;5112779;28;20051;-67
2023/07/13 07:47:54;;;;;;;6.93;1.55;;;;;;;;;;5115162;28;20092;-66
2023/07/13 07:50:21;;;;;;;3.83;1.00;;;;;;;;;;5113890;28;20071;-67
2023/07/13 07:52:47;;;;;;;7.55;2.00;;;;;;;;;;5113167;28;20483;-67
2023/07/13 07:55:13;;;;;;;7.25;1.75;;;;;;;;;;5117345;27;20058;-66
2023/07/13 07:57:39;;;;;;;10.68;2.58;;;;;;;;;;5111526;28;20368;-66
2023/07/13 08:00:06;;;;;;;8.27;1.67;;;;;;;;;;5111458;27;20391;-67
2023/07/13 08:02:32;;;;;;;6.65;2.00;;;;;;;;;;5111892;28;20593;-67
2023/07/13 08:04:59;;;;;;;8.40;2.40;;;;;;;;;;5109334;27;20092;-67
2023/07/13 08:07:25;;;;;;;5.07;1.48;;;;;;;;;;5111931;27;20039;-67
2023/07/13 08:09:55;;;;;;;7.22;2.30;;;;;;;;;;5112592;28;20047;-67
2023/07/13 08:12:21;;;;;;;6.78;2.03;;;;;;;;;;5103731;28;20044;-67
2023/07/13 08:14:53;;;;;;;5.68;1.67;;;;;;;;;;5102558;28;20384;-67
2023/07/13 08:17:20;;;;;;;9.53;2.03;;;;;;;;;;5103434;28;20437;-67
2023/07/13 08:19:47;;;;;;;4.80;1.40;;;;;;;;;;5107028;28;20143;-67
2023/07/13 08:22:13;;;;;;;7.90;1.30;;;;;;;;;;5091674;27;20055;-67
2023/07/13 08:24:39;;;;;;;5.10;1.17;;;;;;;;;;5110076;27;20157;-67
2023/07/13 08:27:05;;;;;;;6.57;1.80;;;;;;;;;;5113141;28;20119;-67
2023/07/13 08:29:31;;;;;;;9.32;2.00;;;;;;;;;;5112047;28;20047;-66
2023/07/13 08:31:58;;;;;;;6.70;1.52;;;;;;;;;;5108846;27;20430;-72
2023/07/13 08:34:24;;;;;;;8.70;1.70;;;;;;;;;;5110495;27;20154;-67
2023/07/13 08:36:51;;;;;;;8.13;1.70;;;;;;;;;;5112429;27;20600;-67
2023/07/13 08:39:17;;;;;;;6.20;1.77;;;;;;;;;;5110738;27;20343;-67
2023/07/13 08:41:46;;;;;;;5.75;1.52;;;;;;;;;;5110378;28;20487;-67
2023/07/13 08:44:19;;;;;;;8.02;2.22;;;;;;;;;;5109491;27;20142;-67
2023/07/13 08:46:46;;;;;;;5.78;1.30;;;;;;;;;;5106936;28;20127;-63
2023/07/13 08:49:14;;;;;;;6.38;1.42;;;;;;;;;;5112567;27;20043;-67
2023/07/13 08:51:41;;;;;;;4.15;1.83;;;;;;;;;;5089653;28;20055;-67
2023/07/13 08:54:18;;;;;;;5.55;1.85;;;;;;;;;;5107178;27;20131;-67
2023/07/13 08:56:47;;;;;;;4.93;1.20;;;;;;;;;;5109692;27;20054;-67
2023/07/13 08:59:18;;;;;;;3.67;1.27;;;;;;;;;;5116476;27;20097;-67
2023/07/13 09:01:53;;;;;;;4.00;0.88;;;;;;;;;;5111508;28;20188;-67
2023/07/13 09:04:22;;;;;;;4.32;1.27;;;;;;;;;;5111060;28;20055;-68
2023/07/13 09:06:54;;;;;;;3.67;0.98;;;;;;;;;;5111895;27;20044;-67
2023/07/13 09:09:41;;;;;;;4.45;0.93;;;;;;;;;;5113266;28;20122;-67
2023/07/13 09:12:24;;;;;;;5.68;1.30;;;;;;;;;;5080673;28;20343;-67
2023/07/13 09:14:52;;;;;;;4.63;1.20;;;;;;;;;;5109820;27;20040;-67
2023/07/13 09:17:21;;;;;;;3.88;1.00;;;;;;;;;;5110966;27;20105;-67
2023/07/13 09:19:50;;;;;;;4.88;0.98;;;;;;;;;;5112752;27;20043;-67
2023/07/13 09:22:19;;;;;;;5.10;0.98;;;;;;;;;;5112184;28;20039;-67
2023/07/13 09:25:04;;;;;;;6.07;1.08;;;;;;;;;;5113038;28;20052;-68
2023/07/13 09:27:34;;;;;;;3.20;1.13;;;;;;;;;;5109222;28;20069;-67
2023/07/13 09:30:25;;;;;;;7.85;1.40;;;;;;;;;;5114024;27;20039;-66
2023/07/13 09:32:53;;;;;;;3.85;1.23;;;;;;;;;;5100185;27;20047;-67
2023/07/13 09:35:21;;;;;;;7.90;1.40;;;;;;;;;;5112291;28;20050;-67
2023/07/13 09:37:47;;;;;;;3.90;1.23;;;;;;;;;;5112969;27;20048;-67
2023/07/13 09:40:32;;;;;;;5.82;1.23;;;;;;;;;;5112673;27;20051;-67
2023/07/13 09:42:59;;;;;;;3.67;1.00;;;;;;;;;;5110248;28;20048;-67
2023/07/13 09:45:29;;;;;;;3.22;1.00;;;;;;;;;;5112644;28;20157;-67
2023/07/13 09:48:06;;;;;;;3.25;0.77;;;;;;;;;;5113602;27;20090;-67
2023/07/13 09:50:32;;;;;;;3.17;0.70;;;;;;;;;;5107917;27;20104;-68
2023/07/13 09:53:01;;;;;;;3.50;0.90;;;;;;;;;;5111175;28;20051;-68
2023/07/13 09:55:30;;;;;;;3.83;0.75;;;;;;;;;;5111072;28;20054;-67
2023/07/13 09:57:57;;;;;;;3.80;0.80;;;;;;;;;;5109745;27;20055;-67
2023/07/13 10:00:26;;;;;;;3.83;1.05;;;;;;;;;;5112783;27;20448;-68
2023/07/13 10:03:03;;;;;;;4.22;0.98;;;;;;;;;;5111924;28;20118;-68
2023/07/13 10:05:37;;;;;;;2.40;0.80;;;;;;;;;;5112540;28;20510;-67
2023/07/13 10:08:07;;;;;;;4.20;0.90;;;;;;;;;;5112057;28;20036;-67
2023/07/13 10:10:35;;;;;;;6.22;1.45;;;;;;;;;;5110073;28;20051;-68
2023/07/13 10:13:04;;;;;;;4.32;0.80;;;;;;;;;;5111167;28;20044;-67
2023/07/13 10:15:30;;;;;;;4.88;1.25;;;;;;;;;;5111352;28;20056;-68
2023/07/13 10:17:58;;;;;;;7.65;1.33;;;;;;;;;;5110099;28;20555;-67
2023/07/13 10:20:25;;;;;;;4.07;0.98;;;;;;;;;;5112971;27;20498;-68
2023/07/13 10:23:06;;;;;;;5.97;1.20;;;;;;;;;;5112117;28;20044;-68
2023/07/13 10:25:38;;;;;;;4.25;1.67;;;;;;;;;;5126423;27;20491;-67
2023/07/13 10:28:26;;;;;;;6.18;1.58;;;;;;;;;;5111762;28;20036;-69
2023/07/13 10:30:53;;;;;;;3.75;1.05;;;;;;;;;;5100884;28;20496;-67
2023/07/13 10:33:20;;;;;;;4.75;1.27;;;;;;;;;;5106117;28;20036;-67
2023/07/13 10:35:46;;;;;;;5.80;1.08;;;;;;;;;;5112195;28;20071;-67
2023/07/13 10:38:21;;;;;;;7.80;1.33;;;;;;;;;;5109559;28;20055;-67
2023/07/13 10:41:10;;;;;;;6.93;1.00;;;;;;;;;;5112131;28;20043;-68
2023/07/13 10:43:40;;;;;;;4.80;1.30;;;;;;;;;;5111029;27;20051;-67
2023/07/13 10:46:08;;;;;;;4.15;1.48;;;;;;;;;;5106363;28;20466;-67
2023/07/13 10:48:36;;;;;;;6.25;1.33;;;;;;;;;;5107677;27;20047;-67
2023/07/13 10:51:05;;;;;;;3.83;1.00;;;;;;;;;;5106897;28;20044;-67
2023/07/13 10:53:33;;;;;;;5.18;1.20;;;;;;;;;;5105778;28;20054;-68
2023/07/13 10:56:01;;;;;;;6.47;1.20;;;;;;;;;;5107655;28;20465;-67
2023/07/13 10:58:33;;;;;;;5.10;1.58;;;;;;;;;;5108017;28;20097;-68
2023/07/13 11:01:03;;;;;;;3.80;1.13;;;;;;;;;;5106438;28;20384;-67
2023/07/13 11:03:30;;;;;;;6.28;1.30;;;;;;;;;;5103783;28;20067;-68
2023/07/13 11:06:05;;;;;;;4.95;1.50;;;;;;;;;;5102206;28;20054;-67
2023/07/13 11:08:32;;;;;;;5.95;1.20;;;;;;;;;;5097092;27;20047;-66
2023/07/13 11:10:58;;;;;;;6.18;1.52;;;;;;;;;;5110311;28;20035;-68
2023/07/13 11:13:47;;;;;;;6.50;1.30;;;;;;;;;;5110615;28;20412;-68
2023/07/13 11:16:33;;;;;;;4.72;1.40;;;;;;;;;;5107658;27;20498;-68
2023/07/13 11:19:02;;;;;;;6.78;1.25;;;;;;;;;;5102323;28;20044;-67
2023/07/13 11:21:30;;;;;;;7.05;1.35;;;;;;;;;;5103017;28;20039;-67
2023/07/13 11:24:15;;;;;;;5.22;1.25;;;;;;;;;;5109350;27;20138;-67
2023/07/13 11:26:43;;;;;;;5.97;1.42;;;;;;;;;;5105930;28;20048;-68
2023/07/13 11:29:29;;;;;;;6.70;1.67;;;;;;;;;;5131475;27;20419;-68
2023/07/13 11:31:57;;;;;;;5.78;1.35;;;;;;;;;;5092415;28;20040;-68
2023/07/13 11:34:32;;;;;;;5.35;1.50;;;;;;;;;;5104342;28;20044;-68
2023/07/13 11:37:00;;;;;;;6.63;1.50;;;;;;;;;;5136631;27;20123;-65
2023/07/13 11:39:33;;;;;;;3.22;0.80;;;;;;;;;;5098901;28;21290;-67
2023/07/13 11:42:04;;;;;;;5.88;1.67;;;;;;;;;;5106052;28;20564;-68
2023/07/13 11:44:31;;;;;;;4.30;1.35;;;;;;;;;;5106248;28;20426;-67
2023/07/13 11:47:00;;;;;;;6.82;1.88;;;;;;;;;;5108608;28;20070;-67
2023/07/13 11:49:27;;;;;;;6.63;1.40;;;;;;;;;;5107503;28;20415;-68
2023/07/13 11:51:54;;;;;;;5.60;1.52;;;;;;;;;;5107004;28;20047;-66
2023/07/13 11:54:26;;;;;;;7.63;1.52;;;;;;;;;;5106701;27;20032;-66
2023/07/13 11:56:53;;;;;;;5.10;1.30;;;;;;;;;;5105218;27;20044;-69
2023/07/13 11:59:21;;;;;;;4.35;1.33;;;;;;;;;;5104750;27;20176;-78
2023/07/13 12:01:52;;;;;;;6.68;1.73;;;;;;;;;;5103986;28;20059;-62
2023/07/13 12:04:31;;;;;;;5.32;1.83;;;;;;;;;;5104032;27;20059;-62
2023/07/13 12:06:58;;;;;;;4.22;1.23;;;;;;;;;;5104332;28;20043;-61
2023/07/13 12:09:26;;;;;;;7.55;1.60;;;;;;;;;;5106487;28;20044;-62
2023/07/13 12:11:52;;;;;;;6.38;1.70;;;;;;;;;;5106187;28;20391;-61
2023/07/13 12:14:20;;;;;;;8.43;1.30;;;;;;;;;;5106795;28;20047;-61
2023/07/13 12:16:47;;;;;;;8.07;1.95;;;;;;;;;;5108378;28;20364;-61
2023/07/13 12:19:18;;;;;;;5.15;1.65;;;;;;;;;;5112969;27;20052;-61
2023/07/13 12:21:45;;;;;;;5.22;1.15;;;;;;;;;;5114359;27;20413;-62
2023/07/13 12:24:19;;;;;;;7.88;1.98;;;;;;;;;;5113620;28;20082;-61
2023/07/13 12:26:45;;;;;;;7.07;1.88;;;;;;;;;;5113862;27;20051;-61
2023/07/13 12:29:14;;;;;;;8.55;1.67;;;;;;;;;;5114291;28;20071;-62
2023/07/13 12:31:47;;;;;;;9.40;1.92;;;;;;;;;;5112286;27;20043;-61
2023/07/13 12:34:15;;;;;;;6.80;1.92;;;;;;;;;;5098676;27;20066;-61
2023/07/13 12:36:50;;;;;;;10.32;2.15;;;;;;;;;;5110847;28;20230;-61
2023/07/13 12:39:18;;;;;;;8.95;2.67;;;;;;;;;;5103507;27;20384;-67
2023/07/13 12:41:45;;;;;;;6.55;2.17;;;;;;;;;;5109505;27;20466;-62
2023/07/13 12:44:13;;;;;;;8.30;2.00;;;;;;;;;;5109039;28;20035;-62
2023/07/13 12:46:39;;;;;;;6.80;1.75;;;;;;;;;;5110395;28;20491;-62
2023/07/13 12:49:07;;;;;;;12.15;2.75;;;;;;;;;;5113066;28;20078;-62
2023/07/13 12:51:33;;;;;;;7.57;1.83;;;;;;;;;;5112532;28;20051;-62
2023/07/13 12:54:07;;;;;;;11.48;2.13;;;;;;;;;;5110314;28;20057;-62
2023/07/13 12:56:34;;;;;;;7.20;1.85;;;;;;;;;;5109212;28;20054;-62
2023/07/13 12:59:02;;;;;;;8.18;1.73;;;;;;;;;;5108792;27;20222;-62
2023/07/13 13:01:29;;;;;;;9.02;2.20;;;;;;;;;;5106761;27;20479;-62
2023/07/13 13:03:56;;;;;;;7.18;1.75;;;;;;;;;;5112315;28;20420;-62
2023/07/13 13:06:24;;;;;;;7.85;1.95;;;;;;;;;;5111170;28;20395;-68
2023/07/13 13:08:52;;;;;;;10.57;2.63;;;;;;;;;;5105034;28;20395;-62
2023/07/13 13:11:19;;;;;;;6.82;2.20;;;;;;;;;;5108700;28;20044;-62
2023/07/13 13:13:48;;;;;;;8.30;1.98;;;;;;;;;;5104258;28;20440;-71
2023/07/13 13:16:24;;;;;;;7.43;2.30;;;;;;;;;;5112295;28;20116;-62
2023/07/13 13:18:51;;;;;;;6.75;1.88;;;;;;;;;;5112055;27;20051;-62
2023/07/13 13:21:18;;;;;;;6.40;1.83;;;;;;;;;;5109543;27;20036;-62
2023/07/13 13:23:45;;;;;;;8.10;1.83;;;;;;;;;;5111794;28;20036;-62
2023/07/13 13:26:13;;;;;;;9.32;2.22;;;;;;;;;;5113032;28;20047;-62
2023/07/13 13:28:39;;;;;;;5.35;1.52;;;;;;;;;;5112352;28;20047;-69
2023/07/13 13:31:05;;;;;;;6.10;2.10;;;;;;;;;;5112045;28;20130;-62
2023/07/13 13:33:32;;;;;;;9.05;2.63;;;;;;;;;;5111846;28;20555;-63
2023/07/13 13:35:59;;;;;;;6.93;1.73;;;;;;;;;;5112308;28;20459;-62
2023/07/13 13:38:26;;;;;;;10.90;2.17;;;;;;;;;;5113127;28;20051;-62
2023/07/13 13:40:52;;;;;;;7.90;2.20;;;;;;;;;;5110873;27;20051;-63
2023/07/13 13:43:19;;;;;;;5.35;1.98;;;;;;;;;;5112997;27;20041;-63
2023/07/13 13:45:47;;;;;;;6.20;1.75;;;;;;;;;;5112561;28;20499;-63
2023/07/13 13:48:20;;;;;;;6.15;1.50;;;;;;;;;;5111931;28;20070;-63
2023/07/13 13:50:47;;;;;;;4.78;1.40;;;;;;;;;;5110605;27;20087;-63
2023/07/13 13:53:14;;;;;;;6.25;1.70;;;;;;;;;;5094569;28;20147;-63
2023/07/13 13:55:41;;;;;;;9.88;2.08;;;;;;;;;;5111636;28;20044;-63
2023/07/13 13:58:09;;;;;;;4.50;1.63;;;;;;;;;;5112897;28;20040;-63
2023/07/13 14:00:35;;;;;;;8.32;1.80;;;;;;;;;;5110917;28;20352;-63
2023/07/13 14:03:01;;;;;;;5.75;1.65;;;;;;;;;;5090546;27;20100;-64
2023/07/13 14:05:28;;;;;;;7.43;1.80;;;;;;;;;;5110412;28;20131;-63
2023/07/13 14:07:56;;;;;;;9.32;1.70;;;;;;;;;;5113373;27;20077;-63
2023/07/13 14:10:22;;;;;;;6.78;2.15;;;;;;;;;;5111940;28;20039;-63
2023/07/13 14:12:53;;;;;;;8.30;2.30;;;;;;;;;;5111322;28;20075;-63
2023/07/13 14:15:24;;;;;;;5.90;1.88;;;;;;;;;;5111113;28;20043;-62
2023/07/13 14:17:50;;;;;;;9.35;1.80;;;;;;;;;;5111203;28;20118;-62
2023/07/13 14:20:17;;;;;;;8.75;1.90;;;;;;;;;;5112278;28;20184;-63
2023/07/13 14:22:44;;;;;;;8.25;2.25;;;;;;;;;;5099359;27;20051;-62
2023/07/13 14:25:14;;;;;;;9.30;1.80;;;;;;;;;;5106468;28;20043;-63
2023/07/13 14:27:41;;;;;;;8.32;1.63;;;;;;;;;;5111981;27;20043;-63
2023/07/13 14:30:14;;;;;;;11.13;1.92;;;;;;;;;;5112198;27;20036;-63
2023/07/13 14:32:40;;;;;;;5.93;1.48;;;;;;;;;;5109654;28;20399;-62
2023/07/13 14:35:08;;;;;;;6.85;1.77;;;;;;;;;;5112072;28;20038;-63
2023/07/13 14:37:34;;;;;;;5.45;1.70;;;;;;;;;;5108966;28;20066;-62
2023/07/13 14:40:01;;;;;;;7.13;1.88;;;;;;;;;;5111198;28;20047;-63
2023/07/13 14:42:27;;;;;;;6.95;2.00;;;;;;;;;;5100814;28;20124;-62
2023/07/13 14:44:54;;;;;;;8.02;1.92;;;;;;;;;;5111671;28;20169;-63